createdAt,value
2022-10-22T00:03:16.947Z,0.40
2022-10-22T00:06:48.082Z,0.50
2022-10-22T00:10:19.971Z,0.60
2022-10-22T00:13:52.014Z,0.60
2022-10-22T00:17:14.174Z,0.70
2022-10-22T00:20:45.551Z,0.80
2022-10-22T00:24:17.158Z,0.80
2022-10-22T00:27:49.246Z,0.80
2022-10-22T00:31:31.840Z,0.80
2022-10-22T00:35:11.726Z,0.80
2022-10-22T00:38:42.832Z,0.80
2022-10-22T00:42:15.450Z,0.90
2022-10-22T00:45:57.430Z,0.90
2022-10-22T00:49:31.052Z,1.00
2022-10-22T00:53:02.968Z,1.10
2022-10-22T00:56:35.234Z,1.10
2022-10-22T01:00:06.680Z,1.10
2022-10-22T01:03:38.581Z,1.10
2022-10-22T01:07:10.694Z,1.10
2022-10-22T01:11:09.179Z,1.10
2022-10-22T01:28:00.976Z,1.20
2022-10-22T01:31:33.478Z,1.10
2022-10-22T01:35:20.670Z,1.10
2022-10-22T01:38:55.098Z,1.10
2022-10-22T01:42:26.535Z,1.20
2022-10-22T01:46:02.640Z,1.20
2022-10-22T01:50:13.917Z,1.20
2022-10-22T02:03:45.909Z,1.30
2022-10-22T02:07:21.279Z,1.40
2022-10-22T02:10:55.970Z,1.40
2022-10-22T02:14:39.051Z,1.40
2022-10-22T02:18:13.999Z,1.40
2022-10-22T02:21:45.070Z,1.50
2022-10-22T02:25:16.649Z,1.50
2022-10-22T02:40:02.007Z,1.60
2022-10-22T03:08:46.599Z,1.60
2022-10-22T03:12:17.486Z,1.60
2022-10-22T03:15:48.611Z,1.60
2022-10-22T03:19:19.294Z,1.60
2022-10-22T03:23:02.847Z,1.60
2022-10-22T03:26:34.442Z,1.60
2022-10-22T03:30:08.149Z,1.70
2022-10-22T03:33:39.136Z,1.70
2022-10-22T03:37:11.225Z,1.80
2022-10-22T03:40:43.162Z,1.80
2022-10-22T03:44:05.748Z,1.90
2022-10-22T03:47:36.818Z,2.00
2022-10-22T03:51:08.133Z,2.00
2022-10-22T03:54:40.123Z,2.10
2022-10-22T03:58:11.534Z,2.10
2022-10-22T04:01:43.501Z,2.20
2022-10-22T04:05:06.251Z,2.20
2022-10-22T04:08:37.369Z,2.20
2022-10-22T04:12:08.616Z,2.20
2022-10-22T04:15:39.699Z,2.20
2022-10-22T04:19:11.303Z,2.20
2022-10-22T04:22:42.848Z,2.20
2022-10-22T04:26:25.700Z,2.20
2022-10-22T04:29:56.471Z,2.20
2022-10-22T04:33:27.481Z,2.20
2022-10-22T04:36:59.076Z,2.20
2022-10-22T04:40:30.186Z,2.20
2022-10-22T04:44:02.709Z,2.20
2022-10-22T04:47:33.672Z,2.30
2022-10-22T04:51:06.510Z,2.40
2022-10-22T04:54:37.612Z,2.50
2022-10-22T04:58:09.308Z,2.70
2022-10-22T05:02:05.607Z,2.90
2022-10-22T05:05:36.646Z,3.10
2022-10-22T05:09:11.675Z,3.30
2022-10-22T05:12:42.782Z,3.40
2022-10-22T05:16:13.243Z,3.50
2022-10-22T05:19:47.445Z,3.60
2022-10-22T05:23:18.054Z,3.70
2022-10-22T05:26:50.899Z,3.80
2022-10-22T05:30:22.510Z,3.90
2022-10-22T05:33:54.011Z,4.00
2022-10-22T05:37:24.946Z,4.10
2022-10-22T05:40:56.103Z,4.20
2022-10-22T05:44:29.589Z,4.30
2022-10-22T05:48:00.645Z,4.50
2022-10-22T05:51:33.420Z,4.60
2022-10-22T05:55:04.420Z,4.70
2022-10-22T05:58:35.399Z,4.70
2022-10-22T06:02:08.543Z,4.80
2022-10-22T06:05:39.631Z,4.90
2022-10-22T06:09:13.705Z,5.00
2022-10-22T06:12:44.585Z,5.10
2022-10-22T06:16:15.733Z,5.20
2022-10-22T06:19:49.191Z,5.20
2022-10-22T06:23:20.265Z,5.30
2022-10-22T06:26:51.071Z,5.40
2022-10-22T06:30:22.288Z,5.50
2022-10-22T06:33:53.845Z,5.60
2022-10-22T06:37:24.834Z,5.60
2022-10-22T06:40:55.766Z,5.70
2022-10-22T06:44:30.377Z,5.80
2022-10-22T06:48:01.525Z,5.90
2022-10-22T06:51:34.102Z,6.00
2022-10-22T06:55:05.166Z,6.00
2022-10-22T06:58:35.945Z,6.10
2022-10-22T07:02:09.083Z,6.20
2022-10-22T07:05:42.926Z,6.40
2022-10-22T11:41:54.782Z,10.90
2022-10-22T11:54:58.554Z,11.00
2022-10-22T12:12:26.522Z,11.10
2022-10-22T12:16:27.228Z,11.10
2022-10-22T12:24:23.835Z,11.20
2022-10-22T13:24:37.115Z,11.20
2022-10-22T13:28:19.956Z,11.20
2022-10-22T13:32:33.296Z,11.20
2022-10-22T13:36:06.375Z,11.30
2022-10-22T13:39:49.394Z,11.20
2022-10-22T13:43:20.329Z,11.30
2022-10-22T13:46:52.191Z,11.20
2022-10-22T13:50:16.528Z,11.10
2022-10-22T13:54:11.234Z,11.10
2022-10-22T13:57:45.539Z,11.00
2022-10-22T14:01:32.114Z,11.00
2022-10-22T14:05:04.234Z,11.00
2022-10-22T14:08:46.246Z,10.90
2022-10-22T14:12:27.853Z,10.90
2022-10-22T14:16:00.383Z,10.90
2022-10-22T14:19:35.332Z,10.90
2022-10-22T14:23:07.854Z,10.80
2022-10-22T14:26:50.814Z,10.80
2022-10-22T14:30:32.943Z,10.80
2022-10-22T14:34:13.474Z,10.70
2022-10-22T14:37:55.763Z,10.70
2022-10-22T14:41:38.983Z,10.70
2022-10-22T14:45:10.102Z,10.60
2022-10-22T14:48:41.050Z,10.60
2022-10-22T14:52:14.842Z,10.50
2022-10-22T14:55:47.300Z,10.40
2022-10-22T14:59:18.073Z,10.30
2022-10-22T15:02:49.649Z,10.10
2022-10-22T15:06:21.720Z,10.00
2022-10-22T19:43:04.522Z,8.10
2022-10-22T19:46:37.011Z,8.20
2022-10-22T19:50:08.441Z,8.20
2022-10-22T19:53:39.813Z,8.20
2022-10-22T19:57:12.142Z,8.10
2022-10-22T20:00:44.746Z,8.10
2022-10-22T20:04:16.330Z,8.20
2022-10-22T20:07:47.373Z,8.20
2022-10-22T20:11:19.927Z,8.20
2022-10-22T20:14:51.608Z,8.10
2022-10-22T20:18:22.560Z,8.20
2022-10-22T20:21:54.694Z,8.30
2022-10-22T20:25:34.876Z,8.30
2022-10-22T20:29:06.405Z,8.30
2022-10-22T20:32:37.446Z,8.30
2022-10-22T20:36:22.686Z,8.30
2022-10-22T20:39:53.510Z,8.30
2022-10-22T20:43:24.592Z,8.30
2022-10-22T20:47:06.092Z,8.30
2022-10-22T20:50:38.713Z,8.30
2022-10-22T20:54:09.790Z,8.40
2022-10-22T20:57:41.386Z,8.40
